createdAt,value
2022-07-25T00:04:47.279Z,11.1
2022-07-25T00:17:03.205Z,11.4
2022-07-25T00:30:15.532Z,11
2022-07-25T00:36:28.661Z,12.3
2022-07-25T00:42:26.815Z,12.3
2022-07-25T00:48:40.108Z,12.8
2022-07-25T00:54:32.604Z,11.6
2022-07-25T01:00:37.271Z,11.5
2022-07-25T01:06:34.222Z,11.1
2022-07-25T01:12:35.353Z,11.3
2022-07-25T01:18:39.690Z,12.5
2022-07-25T01:31:02.486Z,11.2
2022-07-25T01:37:03.813Z,10.8
2022-07-25T01:43:09.822Z,12.7
2022-07-25T01:49:14.795Z,11.7
2022-07-25T01:55:08.262Z,12.6
2022-07-25T02:14:15.909Z,12.3
2022-07-25T02:20:41.591Z,11.7
2022-07-25T02:26:51.464Z,10.9
2022-07-25T02:32:53.185Z,12.9
2022-07-25T02:38:51.810Z,9.9
2022-07-25T02:50:59.607Z,11.8
2022-07-25T02:56:59.869Z,10.6
2022-07-25T03:03:06.203Z,11.9
2022-07-25T03:09:11.510Z,10.4
2022-07-25T03:15:22.931Z,11.5
2022-07-25T03:21:28.307Z,10.1
2022-07-25T03:34:30.704Z,10.8
2022-07-25T03:40:33.749Z,12.6
2022-07-25T03:46:57.046Z,12.7
2022-07-25T03:52:47.338Z,12.2
2022-07-25T03:58:55.831Z,11.6
2022-07-25T04:35:49.134Z,14.4
2022-07-25T04:41:41.511Z,11.3
2022-07-25T04:47:32.911Z,12.5
2022-07-25T04:53:25.070Z,11.2
2022-07-25T04:59:16.094Z,10.8
2022-07-25T05:05:08.578Z,8.9
2022-07-25T05:11:10.992Z,9.9
2022-07-25T05:17:04.345Z,10.7
2022-07-25T05:22:55.888Z,9.7
2022-07-25T05:28:47.839Z,12.9
2022-07-25T05:34:38.811Z,8.9
2022-07-25T05:40:30.726Z,11.1
2022-07-25T05:46:22.124Z,8.5
2022-07-25T05:52:18.695Z,11.8
2022-07-25T05:58:12.874Z,8.8
2022-07-25T06:04:07.279Z,10.1
2022-07-25T06:10:00.873Z,8.6
2022-07-25T06:15:52.711Z,9.5
2022-07-25T06:21:47.960Z,10.3
2022-07-25T06:27:40.744Z,8.7
2022-07-25T06:33:30.919Z,7.7
2022-07-25T06:39:21.732Z,8.7
2022-07-25T06:45:10.593Z,9.9
2022-07-25T06:51:01.959Z,9.2
2022-07-25T06:56:54.938Z,8.7
2022-07-25T07:02:46.651Z,11.1
2022-07-25T07:08:38.192Z,8.9
2022-07-25T07:14:28.846Z,10
2022-07-25T07:20:20.362Z,11.7
2022-07-25T07:26:13.045Z,10
2022-07-25T07:32:03.773Z,11.1
2022-07-25T07:37:54.841Z,10.5
2022-07-25T07:43:46.188Z,11.6
2022-07-25T07:49:43.371Z,11.6
2022-07-25T07:55:39.526Z,9.3
2022-07-25T08:01:31.169Z,10.3
2022-07-25T08:07:23.655Z,10.3
2022-07-25T08:13:14.611Z,11.4
2022-07-25T08:19:07.285Z,11.6
2022-07-25T08:25:00.987Z,11.9
2022-07-25T08:30:53.134Z,12.4
2022-07-25T08:36:43.497Z,12
2022-07-25T08:42:35.560Z,12.4
2022-07-25T08:48:28.202Z,12.2
2022-07-25T08:54:24.283Z,12.3
2022-07-25T09:00:15.263Z,13.2
2022-07-25T09:06:09.008Z,11.9
2022-07-25T09:11:59.934Z,10.9
2022-07-25T09:17:54.651Z,10.4
2022-07-25T09:23:46.316Z,10.4
2022-07-25T09:29:37.289Z,12.4
2022-07-25T09:35:28.715Z,10.8
2022-07-25T09:41:20.713Z,9.9
2022-07-25T09:47:12.255Z,9.9
2022-07-25T09:53:02.777Z,8.5
2022-07-25T09:58:54.514Z,8.6
2022-07-25T10:04:46.882Z,9.6
2022-07-25T10:10:40.282Z,10.6
2022-07-25T10:16:32.792Z,8.4
2022-07-25T10:23:00.578Z,9.3
2022-07-25T10:28:50.140Z,9.5
2022-07-25T10:34:40.720Z,12.7
2022-07-25T10:40:32.335Z,8.8
2022-07-25T10:46:25.693Z,10.8
2022-07-25T10:52:18.677Z,14.9
2022-07-25T10:58:21.991Z,11
2022-07-25T11:04:11.865Z,10.8
2022-07-25T11:10:02.312Z,12.7
2022-07-25T11:15:55.027Z,11.2
2022-07-25T11:21:45.837Z,10.2
2022-07-25T11:27:38.715Z,15.4
2022-07-25T11:33:29.252Z,9.6
2022-07-25T11:39:23.375Z,10.9
2022-07-25T11:45:12.757Z,9.8
2022-07-25T11:51:01.619Z,11.1
2022-07-25T11:56:53.284Z,12.2
2022-07-25T12:02:44.426Z,11.9
2022-07-25T12:08:36.521Z,16.5
2022-07-25T12:14:32.367Z,14.5
2022-07-25T12:20:26.168Z,14.5
2022-07-25T12:26:17.676Z,11.3
2022-07-25T12:32:10.653Z,12.7
2022-07-25T12:38:01.746Z,17.3
2022-07-25T12:43:52.649Z,12.2
2022-07-25T12:49:45.481Z,13.8
2022-07-25T12:55:36.795Z,13.6
2022-07-25T13:01:26.908Z,16.3
2022-07-25T13:07:18.020Z,11.6
2022-07-25T13:13:09.725Z,10.6
2022-07-25T13:19:01.754Z,14.3
2022-07-25T13:24:53.510Z,10.2
2022-07-25T13:30:45.164Z,9.3
2022-07-25T13:36:37.107Z,11
2022-07-25T13:42:28.464Z,11.1
2022-07-25T13:48:36.422Z,12.2
2022-07-25T13:54:26.463Z,11.8
2022-07-25T14:00:18.748Z,8.1
2022-07-25T14:06:11.263Z,11.3
2022-07-25T14:12:01.795Z,8.6
2022-07-25T14:17:54.357Z,9.2
2022-07-25T14:23:45.629Z,8.5
2022-07-25T14:29:36.278Z,8.4
2022-07-25T14:35:34.413Z,7.5
2022-07-25T14:41:24.338Z,8.7
2022-07-25T14:47:17.534Z,8.2
2022-07-25T14:53:09.067Z,9.4
2022-07-25T14:59:00.425Z,7.1
2022-07-25T15:04:51.624Z,8.1
2022-07-25T15:10:42.788Z,8.3
2022-07-25T15:16:34.085Z,7.5
2022-07-25T15:22:25.045Z,6
2022-07-25T15:28:14.143Z,9.3
2022-07-25T15:34:05.408Z,7.4
2022-07-25T15:39:56.151Z,6.7
2022-07-25T15:45:46.588Z,6.2
2022-07-25T15:51:36.802Z,11.4
2022-07-25T15:58:38.209Z,8.5
2022-07-25T16:04:28.428Z,9.5
2022-07-25T16:10:19.282Z,10
2022-07-25T16:16:10.619Z,9.3
2022-07-25T16:22:01.499Z,10.2
2022-07-25T16:27:54.002Z,9.9
2022-07-25T16:33:45.786Z,8.5
2022-07-25T16:39:37.213Z,8.9
2022-07-25T16:45:27.612Z,7.2
2022-07-25T16:51:18.204Z,6.1
2022-07-25T16:57:09.365Z,7.5
2022-07-25T17:03:00.187Z,7.2
2022-07-25T17:08:51.039Z,7.6
2022-07-25T17:14:42.321Z,5.4
2022-07-25T17:20:33.428Z,7.1
2022-07-25T17:26:23.888Z,6.9
2022-07-25T17:32:13.740Z,4.6
2022-07-25T17:38:06.116Z,9
2022-07-25T17:43:59.802Z,4.5
2022-07-25T17:49:50.072Z,6.9
2022-07-25T17:55:46.649Z,7.2
2022-07-25T18:01:37.301Z,7.1
2022-07-25T18:07:27.558Z,5.7
2022-07-25T18:13:17.599Z,4.3
2022-07-25T18:19:11.086Z,10.2
2022-07-25T18:25:03.664Z,5.3
2022-07-25T18:30:54.116Z,7.6
2022-07-25T18:36:43.487Z,7.7
2022-07-25T18:42:34.831Z,7.1
2022-07-25T18:48:32.388Z,7.8
2022-07-25T18:54:22.813Z,6.3
2022-07-25T19:00:12.707Z,7.5
2022-07-25T19:06:08.934Z,6.8
2022-07-25T19:11:58.323Z,8.6
2022-07-25T19:17:48.685Z,8
2022-07-25T19:23:39.346Z,7.3
2022-07-25T19:29:29.979Z,7.6
2022-07-25T19:35:28.546Z,8.8
2022-07-25T19:41:17.675Z,10.4
2022-07-25T19:47:13.562Z,6
2022-07-25T19:53:05.029Z,9.7
2022-07-25T19:58:55.871Z,6.7
2022-07-25T20:04:46.600Z,6
2022-07-25T20:10:37.442Z,5.9
2022-07-25T20:16:27.605Z,7.3
2022-07-25T20:22:18.036Z,5.7
2022-07-25T20:28:08.701Z,9.7
2022-07-25T20:33:59.651Z,8
2022-07-25T20:39:53.759Z,8.6
2022-07-25T20:45:44.065Z,6.7
2022-07-25T20:51:37.561Z,6.1
2022-07-25T20:57:28.433Z,8.2
2022-07-25T21:03:18.952Z,7.2
2022-07-25T21:09:11.187Z,7.1
2022-07-25T21:15:00.988Z,6.9
2022-07-25T21:20:52.997Z,6.8
2022-07-25T21:26:43.442Z,8.3
2022-07-25T21:32:34.175Z,6.8
2022-07-25T21:38:36.656Z,8.7
2022-07-25T21:44:27.960Z,8.3
2022-07-25T21:50:27.937Z,8.5
2022-07-25T21:56:18.034Z,6.2
2022-07-25T22:02:10.632Z,5.8
2022-07-25T22:08:01.460Z,5.8
2022-07-25T22:13:52.137Z,7
2022-07-25T22:19:43.190Z,6.5
2022-07-25T22:25:34.286Z,6.2
2022-07-25T22:31:25.353Z,5.7
2022-07-25T22:37:18.218Z,4.5
2022-07-25T22:43:08.474Z,7.4
2022-07-25T22:48:59.862Z,6.3
2022-07-25T22:54:50.469Z,7
2022-07-25T23:00:41.214Z,6.6
2022-07-25T23:06:34.004Z,7.8
2022-07-25T23:12:24.601Z,4
2022-07-25T23:24:22.715Z,6.5
2022-07-25T23:30:15.769Z,6.4
2022-07-25T23:36:10.915Z,8.3
2022-07-25T23:42:00.700Z,7.7
2022-07-25T23:48:00.844Z,5.5
2022-07-25T23:53:53.742Z,6.2
2022-07-25T23:59:44.930Z,6.1
